sensor_id;sensor_type;location;lat;lon;timestamp;temperature;humidity
10986;DHT22;5546;48.714;8.738;2023-05-19T00:01:46;14.70;84.70
10986;DHT22;5546;48.714;8.738;2023-05-19T00:04:13;14.30;85.30
10986;DHT22;5546;48.714;8.738;2023-05-19T00:06:40;14.20;85.60
10986;DHT22;5546;48.714;8.738;2023-05-19T00:09:10;14.20;85.40
10986;DHT22;5546;48.714;8.738;2023-05-19T00:11:38;14.00;87.10
10986;DHT22;5546;48.714;8.738;2023-05-19T00:14:05;14.20;86.20
10986;DHT22;5546;48.714;8.738;2023-05-19T00:16:32;14.50;84.50
10986;DHT22;5546;48.714;8.738;2023-05-19T00:18:59;14.40;85.80
10986;DHT22;5546;48.714;8.738;2023-05-19T00:21:25;14.20;86.40
10986;DHT22;5546;48.714;8.738;2023-05-19T00:23:51;14.40;86.20
10986;DHT22;5546;48.714;8.738;2023-05-19T00:26:17;14.40;86.40
10986;DHT22;5546;48.714;8.738;2023-05-19T00:28:43;14.40;86.20
10986;DHT22;5546;48.714;8.738;2023-05-19T00:31:08;14.60;85.50
10986;DHT22;5546;48.714;8.738;2023-05-19T00:33:34;14.40;85.90
10986;DHT22;5546;48.714;8.738;2023-05-19T00:36:01;14.50;86.10
10986;DHT22;5546;48.714;8.738;2023-05-19T00:38:30;14.30;85.60
10986;DHT22;5546;48.714;8.738;2023-05-19T00:40:57;14.30;86.00
10986;DHT22;5546;48.714;8.738;2023-05-19T00:43:22;14.40;85.70
10986;DHT22;5546;48.714;8.738;2023-05-19T00:45:48;14.20;85.50
10986;DHT22;5546;48.714;8.738;2023-05-19T00:48:13;13.90;86.50
10986;DHT22;5546;48.714;8.738;2023-05-19T00:50:39;14.00;87.40
10986;DHT22;5546;48.714;8.738;2023-05-19T00:53:06;14.20;87.10
10986;DHT22;5546;48.714;8.738;2023-05-19T00:55:32;14.10;87.10
10986;DHT22;5546;48.714;8.738;2023-05-19T00:57:58;14.20;86.70
10986;DHT22;5546;48.714;8.738;2023-05-19T01:00:24;16.80;88.00
10986;DHT22;5546;48.714;8.738;2023-05-19T01:02:50;13.80;87.00
10986;DHT22;5546;48.714;8.738;2023-05-19T01:05:16;13.90;87.20
10986;DHT22;5546;48.714;8.738;2023-05-19T01:07:42;13.80;86.30
10986;DHT22;5546;48.714;8.738;2023-05-19T01:10:08;13.70;87.40
10986;DHT22;5546;48.714;8.738;2023-05-19T01:12:34;13.90;87.40
10986;DHT22;5546;48.714;8.738;2023-05-19T01:15:00;14.20;86.30
10986;DHT22;5546;48.714;8.738;2023-05-19T01:20:39;13.90;86.10
10986;DHT22;5546;48.714;8.738;2023-05-19T01:23:32;14.00;86.70
10986;DHT22;5546;48.714;8.738;2023-05-19T01:26:42;14.00;86.60
10986;DHT22;5546;48.714;8.738;2023-05-19T01:29:24;14.10;86.00
10986;DHT22;5546;48.714;8.738;2023-05-19T01:31:54;13.80;85.70
10986;DHT22;5546;48.714;8.738;2023-05-19T01:34:22;13.60;85.60
10986;DHT22;5546;48.714;8.738;2023-05-19T01:36:50;13.50;87.30
10986;DHT22;5546;48.714;8.738;2023-05-19T01:39:17;13.50;86.90
10986;DHT22;5546;48.714;8.738;2023-05-19T01:41:44;13.30;87.40
10986;DHT22;5546;48.714;8.738;2023-05-19T01:44:11;13.40;87.70
10986;DHT22;5546;48.714;8.738;2023-05-19T01:46:37;13.50;87.40
10986;DHT22;5546;48.714;8.738;2023-05-19T01:49:03;13.30;88.10
10986;DHT22;5546;48.714;8.738;2023-05-19T01:51:30;13.30;87.50
10986;DHT22;5546;48.714;8.738;2023-05-19T01:56:40;13.40;87.40
10986;DHT22;5546;48.714;8.738;2023-05-19T01:59:15;13.30;87.90
10986;DHT22;5546;48.714;8.738;2023-05-19T02:01:53;13.10;88.50
10986;DHT22;5546;48.714;8.738;2023-05-19T02:04:43;13.30;87.50
10986;DHT22;5546;48.714;8.738;2023-05-19T02:07:20;13.50;87.40
10986;DHT22;5546;48.714;8.738;2023-05-19T02:09:59;13.80;86.50
10986;DHT22;5546;48.714;8.738;2023-05-19T02:12:36;13.80;86.30
10986;DHT22;5546;48.714;8.738;2023-05-19T02:15:17;13.50;86.40
10986;DHT22;5546;48.714;8.738;2023-05-19T02:17:47;13.50;87.30
10986;DHT22;5546;48.714;8.738;2023-05-19T02:20:15;13.50;87.50
10986;DHT22;5546;48.714;8.738;2023-05-19T02:22:40;13.60;87.30
10986;DHT22;5546;48.714;8.738;2023-05-19T02:25:07;13.60;86.90
10986;DHT22;5546;48.714;8.738;2023-05-19T02:27:35;13.80;86.50
10986;DHT22;5546;48.714;8.738;2023-05-19T02:34:52;13.20;87.30
10986;DHT22;5546;48.714;8.738;2023-05-19T02:39:48;13.30;87.80
10986;DHT22;5546;48.714;8.738;2023-05-19T02:42:14;13.60;87.20
10986;DHT22;5546;48.714;8.738;2023-05-19T02:44:42;13.60;86.50
10986;DHT22;5546;48.714;8.738;2023-05-19T02:47:07;13.80;86.50
10986;DHT22;5546;48.714;8.738;2023-05-19T02:49:33;13.70;87.00
10986;DHT22;5546;48.714;8.738;2023-05-19T02:52:04;13.70;87.30
10986;DHT22;5546;48.714;8.738;2023-05-19T02:54:31;13.70;86.20
10986;DHT22;5546;48.714;8.738;2023-05-19T02:56:57;13.70;87.30
10986;DHT22;5546;48.714;8.738;2023-05-19T02:59:23;13.60;87.50
10986;DHT22;5546;48.714;8.738;2023-05-19T03:01:50;13.80;85.80
10986;DHT22;5546;48.714;8.738;2023-05-19T03:04:16;13.80;86.60
10986;DHT22;5546;48.714;8.738;2023-05-19T03:06:44;13.80;86.60
10986;DHT22;5546;48.714;8.738;2023-05-19T03:11:37;13.80;86.50
10986;DHT22;5546;48.714;8.738;2023-05-19T03:14:02;13.70;86.60
10986;DHT22;5546;48.714;8.738;2023-05-19T03:16:28;13.80;86.90
10986;DHT22;5546;48.714;8.738;2023-05-19T03:18:54;13.70;86.30
10986;DHT22;5546;48.714;8.738;2023-05-19T03:21:19;13.60;87.30
10986;DHT22;5546;48.714;8.738;2023-05-19T03:23:45;13.10;88.90
10986;DHT22;5546;48.714;8.738;2023-05-19T03:26:11;13.10;88.20
10986;DHT22;5546;48.714;8.738;2023-05-19T03:28:37;13.10;89.50
10986;DHT22;5546;48.714;8.738;2023-05-19T03:33:28;13.20;89.10
10986;DHT22;5546;48.714;8.738;2023-05-19T03:35:57;13.30;88.70
10986;DHT22;5546;48.714;8.738;2023-05-19T03:38:23;13.40;88.70
10986;DHT22;5546;48.714;8.738;2023-05-19T03:40:49;13.30;88.70
10986;DHT22;5546;48.714;8.738;2023-05-19T03:43:14;13.50;88.70
10986;DHT22;5546;48.714;8.738;2023-05-19T03:45:40;13.50;89.00
10986;DHT22;5546;48.714;8.738;2023-05-19T03:48:06;13.40;89.20
10986;DHT22;5546;48.714;8.738;2023-05-19T03:50:32;13.20;87.40
10986;DHT22;5546;48.714;8.738;2023-05-19T03:55:24;13.30;89.10
10986;DHT22;5546;48.714;8.738;2023-05-19T03:57:50;13.40;88.80
10986;DHT22;5546;48.714;8.738;2023-05-19T04:05:09;13.20;89.40
10986;DHT22;5546;48.714;8.738;2023-05-19T04:07:35;13.00;90.20
10986;DHT22;5546;48.714;8.738;2023-05-19T04:10:05;13.20;90.10
10986;DHT22;5546;48.714;8.738;2023-05-19T04:12:31;13.20;89.80
10986;DHT22;5546;48.714;8.738;2023-05-19T04:14:57;13.20;89.90
10986;DHT22;5546;48.714;8.738;2023-05-19T04:17:23;12.80;89.90
10986;DHT22;5546;48.714;8.738;2023-05-19T04:19:51;12.80;89.10
10986;DHT22;5546;48.714;8.738;2023-05-19T04:24:42;12.60;90.20
10986;DHT22;5546;48.714;8.738;2023-05-19T04:27:08;12.50;90.20
10986;DHT22;5546;48.714;8.738;2023-05-19T04:29:36;12.70;90.00
10986;DHT22;5546;48.714;8.738;2023-05-19T04:32:03;12.60;90.20
10986;DHT22;5546;48.714;8.738;2023-05-19T04:34:35;12.70;89.90
10986;DHT22;5546;48.714;8.738;2023-05-19T04:37:05;12.90;89.90
10986;DHT22;5546;48.714;8.738;2023-05-19T04:39:31;13.10;88.30
10986;DHT22;5546;48.714;8.738;2023-05-19T04:41:57;13.00;89.50
10986;DHT22;5546;48.714;8.738;2023-05-19T04:44:22;13.50;88.10
10986;DHT22;5546;48.714;8.738;2023-05-19T04:46:48;13.60;86.90
10986;DHT22;5546;48.714;8.738;2023-05-19T04:49:14;13.80;86.60
10986;DHT22;5546;48.714;8.738;2023-05-19T04:51:40;13.90;86.70
10986;DHT22;5546;48.714;8.738;2023-05-19T04:54:06;14.20;85.70
10986;DHT22;5546;48.714;8.738;2023-05-19T04:56:32;14.00;84.40
10986;DHT22;5546;48.714;8.738;2023-05-19T04:58:58;14.00;85.90
10986;DHT22;5546;48.714;8.738;2023-05-19T05:01:23;14.20;84.50
10986;DHT22;5546;48.714;8.738;2023-05-19T05:03:50;14.30;83.90
10986;DHT22;5546;48.714;8.738;2023-05-19T05:06:19;14.30;84.10
10986;DHT22;5546;48.714;8.738;2023-05-19T05:08:45;14.50;84.20
10986;DHT22;5546;48.714;8.738;2023-05-19T05:11:11;14.70;84.00
10986;DHT22;5546;48.714;8.738;2023-05-19T05:13:36;14.90;83.20
10986;DHT22;5546;48.714;8.738;2023-05-19T05:16:02;14.70;83.50
10986;DHT22;5546;48.714;8.738;2023-05-19T05:18:31;14.90;82.90
10986;DHT22;5546;48.714;8.738;2023-05-19T05:20:57;15.20;81.60
10986;DHT22;5546;48.714;8.738;2023-05-19T05:23:23;15.20;82.00
10986;DHT22;5546;48.714;8.738;2023-05-19T05:25:49;15.80;79.60
10986;DHT22;5546;48.714;8.738;2023-05-19T05:28:15;15.80;79.30
10986;DHT22;5546;48.714;8.738;2023-05-19T05:30:40;15.90;80.00
10986;DHT22;5546;48.714;8.738;2023-05-19T05:33:08;15.80;79.70
10986;DHT22;5546;48.714;8.738;2023-05-19T05:35:33;15.90;80.20
10986;DHT22;5546;48.714;8.738;2023-05-19T05:37:59;15.80;79.70
10986;DHT22;5546;48.714;8.738;2023-05-19T05:40:25;15.80;80.20
10986;DHT22;5546;48.714;8.738;2023-05-19T05:42:51;16.20;79.30
10986;DHT22;5546;48.714;8.738;2023-05-19T05:45:21;16.50;77.70
10986;DHT22;5546;48.714;8.738;2023-05-19T05:47:46;16.70;76.60
10986;DHT22;5546;48.714;8.738;2023-05-19T05:50:12;17.10;76.00
10986;DHT22;5546;48.714;8.738;2023-05-19T05:52:38;17.00;75.30
10986;DHT22;5546;48.714;8.738;2023-05-19T05:55:05;16.70;75.50
10986;DHT22;5546;48.714;8.738;2023-05-19T05:57:31;16.70;76.20
10986;DHT22;5546;48.714;8.738;2023-05-19T05:59:59;17.10;74.70
10986;DHT22;5546;48.714;8.738;2023-05-19T06:02:25;17.40;73.10
10986;DHT22;5546;48.714;8.738;2023-05-19T06:04:52;18.10;72.00
10986;DHT22;5546;48.714;8.738;2023-05-19T06:07:18;18.20;70.80
10986;DHT22;5546;48.714;8.738;2023-05-19T06:09:44;18.70;69.80
10986;DHT22;5546;48.714;8.738;2023-05-19T06:12:09;19.10;67.70
10986;DHT22;5546;48.714;8.738;2023-05-19T06:14:35;19.20;67.50
10986;DHT22;5546;48.714;8.738;2023-05-19T06:17:01;18.90;68.40
10986;DHT22;5546;48.714;8.738;2023-05-19T06:19:26;19.30;66.80
10986;DHT22;5546;48.714;8.738;2023-05-19T06:21:52;19.50;66.80
10986;DHT22;5546;48.714;8.738;2023-05-19T06:24:17;20.40;64.60
10986;DHT22;5546;48.714;8.738;2023-05-19T06:26:43;20.50;62.80
10986;DHT22;5546;48.714;8.738;2023-05-19T06:29:09;20.30;64.20
10986;DHT22;5546;48.714;8.738;2023-05-19T06:31:34;20.30;63.90
10986;DHT22;5546;48.714;8.738;2023-05-19T06:34:00;20.30;64.70
10986;DHT22;5546;48.714;8.738;2023-05-19T06:36:25;20.90;63.00
10986;DHT22;5546;48.714;8.738;2023-05-19T06:38:51;21.40;61.60
10986;DHT22;5546;48.714;8.738;2023-05-19T06:41:16;21.70;59.90
10986;DHT22;5546;48.714;8.738;2023-05-19T06:43:42;21.90;60.00
10986;DHT22;5546;48.714;8.738;2023-05-19T06:46:08;22.50;58.70
10986;DHT22;5546;48.714;8.738;2023-05-19T06:48:33;22.60;58.70
10986;DHT22;5546;48.714;8.738;2023-05-19T06:50:59;21.90;59.50
10986;DHT22;5546;48.714;8.738;2023-05-19T06:53:24;21.60;59.60
10986;DHT22;5546;48.714;8.738;2023-05-19T06:55:50;21.00;61.90
10986;DHT22;5546;48.714;8.738;2023-05-19T06:58:16;21.60;60.90
10986;DHT22;5546;48.714;8.738;2023-05-19T07:00:42;21.50;59.80
10986;DHT22;5546;48.714;8.738;2023-05-19T07:03:08;19.70;64.50
10986;DHT22;5546;48.714;8.738;2023-05-19T07:05:33;19.70;65.00
10986;DHT22;5546;48.714;8.738;2023-05-19T07:07:59;19.70;65.30
10986;DHT22;5546;48.714;8.738;2023-05-19T07:10:24;19.60;65.50
10986;DHT22;5546;48.714;8.738;2023-05-19T07:12:50;19.70;64.30
10986;DHT22;5546;48.714;8.738;2023-05-19T07:15:15;19.80;64.60
10986;DHT22;5546;48.714;8.738;2023-05-19T07:17:41;20.30;63.20
10986;DHT22;5546;48.714;8.738;2023-05-19T07:20:07;20.30;62.30
10986;DHT22;5546;48.714;8.738;2023-05-19T07:22:34;21.00;62.10
10986;DHT22;5546;48.714;8.738;2023-05-19T07:25:00;22.30;59.40
10986;DHT22;5546;48.714;8.738;2023-05-19T07:27:26;21.90;59.00
10986;DHT22;5546;48.714;8.738;2023-05-19T07:29:51;21.30;59.60
10986;DHT22;5546;48.714;8.738;2023-05-19T07:32:17;20.80;61.20
10986;DHT22;5546;48.714;8.738;2023-05-19T07:34:42;20.20;63.10
10986;DHT22;5546;48.714;8.738;2023-05-19T07:37:08;20.60;62.60
10986;DHT22;5546;48.714;8.738;2023-05-19T07:39:34;20.70;62.10
10986;DHT22;5546;48.714;8.738;2023-05-19T07:42:00;20.10;64.00
10986;DHT22;5546;48.714;8.738;2023-05-19T07:44:26;20.10;63.90
10986;DHT22;5546;48.714;8.738;2023-05-19T07:46:52;20.00;63.30
10986;DHT22;5546;48.714;8.738;2023-05-19T07:49:18;20.00;63.50
10986;DHT22;5546;48.714;8.738;2023-05-19T07:51:44;19.50;64.30
10986;DHT22;5546;48.714;8.738;2023-05-19T07:54:09;19.20;65.40
10986;DHT22;5546;48.714;8.738;2023-05-19T07:56:35;19.60;65.10
10986;DHT22;5546;48.714;8.738;2023-05-19T07:59:01;20.10;63.70
10986;DHT22;5546;48.714;8.738;2023-05-19T08:01:28;20.70;62.60
10986;DHT22;5546;48.714;8.738;2023-05-19T08:03:54;20.50;62.50
10986;DHT22;5546;48.714;8.738;2023-05-19T08:06:20;20.10;64.00
10986;DHT22;5546;48.714;8.738;2023-05-19T08:08:45;20.40;62.30
10986;DHT22;5546;48.714;8.738;2023-05-19T08:11:11;19.10;65.00
10986;DHT22;5546;48.714;8.738;2023-05-19T08:13:37;18.50;67.00
10986;DHT22;5546;48.714;8.738;2023-05-19T08:16:02;18.30;68.10
10986;DHT22;5546;48.714;8.738;2023-05-19T08:18:29;18.80;66.70
10986;DHT22;5546;48.714;8.738;2023-05-19T08:20:55;18.90;66.70
10986;DHT22;5546;48.714;8.738;2023-05-19T08:23:21;19.70;65.30
10986;DHT22;5546;48.714;8.738;2023-05-19T08:25:47;20.00;64.40
10986;DHT22;5546;48.714;8.738;2023-05-19T08:28:12;20.20;64.10
10986;DHT22;5546;48.714;8.738;2023-05-19T08:30:38;20.20;63.80
10986;DHT22;5546;48.714;8.738;2023-05-19T08:33:04;20.40;63.40
10986;DHT22;5546;48.714;8.738;2023-05-19T08:35:30;20.30;63.50
10986;DHT22;5546;48.714;8.738;2023-05-19T08:37:56;20.60;63.60
10986;DHT22;5546;48.714;8.738;2023-05-19T08:40:22;21.10;62.70
10986;DHT22;5546;48.714;8.738;2023-05-19T08:42:48;20.80;61.60
10986;DHT22;5546;48.714;8.738;2023-05-19T08:45:14;19.50;65.60
10986;DHT22;5546;48.714;8.738;2023-05-19T08:47:40;19.70;66.40
10986;DHT22;5546;48.714;8.738;2023-05-19T08:50:07;19.80;65.00
10986;DHT22;5546;48.714;8.738;2023-05-19T08:52:51;18.90;66.80
10986;DHT22;5546;48.714;8.738;2023-05-19T08:55:35;18.00;69.70
10986;DHT22;5546;48.714;8.738;2023-05-19T08:58:04;18.40;69.90
10986;DHT22;5546;48.714;8.738;2023-05-19T09:00:29;18.50;69.50
10986;DHT22;5546;48.714;8.738;2023-05-19T09:02:56;18.00;70.10
10986;DHT22;5546;48.714;8.738;2023-05-19T09:05:22;17.60;72.20
10986;DHT22;5546;48.714;8.738;2023-05-19T09:07:48;17.50;72.20
10986;DHT22;5546;48.714;8.738;2023-05-19T09:10:14;17.50;72.30
10986;DHT22;5546;48.714;8.738;2023-05-19T09:12:45;18.50;71.30
10986;DHT22;5546;48.714;8.738;2023-05-19T09:15:12;18.40;70.60
10986;DHT22;5546;48.714;8.738;2023-05-19T09:17:40;18.60;69.00
10986;DHT22;5546;48.714;8.738;2023-05-19T09:20:06;18.50;68.90
10986;DHT22;5546;48.714;8.738;2023-05-19T09:22:44;18.30;69.80
10986;DHT22;5546;48.714;8.738;2023-05-19T09:25:18;18.70;69.60
10986;DHT22;5546;48.714;8.738;2023-05-19T09:27:45;19.40;67.80
10986;DHT22;5546;48.714;8.738;2023-05-19T09:30:13;19.50;66.50
10986;DHT22;5546;48.714;8.738;2023-05-19T09:32:39;19.70;65.60
10986;DHT22;5546;48.714;8.738;2023-05-19T09:35:05;19.80;66.00
10986;DHT22;5546;48.714;8.738;2023-05-19T09:37:31;20.30;64.20
10986;DHT22;5546;48.714;8.738;2023-05-19T09:39:56;20.20;64.00
10986;DHT22;5546;48.714;8.738;2023-05-19T09:42:26;20.40;63.20
10986;DHT22;5546;48.714;8.738;2023-05-19T09:44:59;20.50;62.50
10986;DHT22;5546;48.714;8.738;2023-05-19T09:47:25;20.10;62.70
10986;DHT22;5546;48.714;8.738;2023-05-19T09:49:52;18.90;65.20
10986;DHT22;5546;48.714;8.738;2023-05-19T09:52:18;18.10;69.00
10986;DHT22;5546;48.714;8.738;2023-05-19T09:54:44;18.20;68.20
10986;DHT22;5546;48.714;8.738;2023-05-19T09:57:11;18.80;67.20
10986;DHT22;5546;48.714;8.738;2023-05-19T09:59:37;19.00;66.00
10986;DHT22;5546;48.714;8.738;2023-05-19T10:02:03;19.30;65.90
10986;DHT22;5546;48.714;8.738;2023-05-19T10:04:30;19.60;65.00
10986;DHT22;5546;48.714;8.738;2023-05-19T10:06:57;19.00;65.90
10986;DHT22;5546;48.714;8.738;2023-05-19T10:09:26;19.10;66.10
10986;DHT22;5546;48.714;8.738;2023-05-19T10:11:54;19.40;64.20
10986;DHT22;5546;48.714;8.738;2023-05-19T10:14:24;19.40;64.10
10986;DHT22;5546;48.714;8.738;2023-05-19T10:16:51;19.80;63.60
10986;DHT22;5546;48.714;8.738;2023-05-19T10:19:20;18.80;66.00
10986;DHT22;5546;48.714;8.738;2023-05-19T10:21:46;18.90;66.00
10986;DHT22;5546;48.714;8.738;2023-05-19T10:24:11;19.20;65.10
10986;DHT22;5546;48.714;8.738;2023-05-19T10:26:38;19.30;64.10
10986;DHT22;5546;48.714;8.738;2023-05-19T10:29:06;18.50;65.80
10986;DHT22;5546;48.714;8.738;2023-05-19T10:31:32;18.50;66.00
10986;DHT22;5546;48.714;8.738;2023-05-19T10:40:27;18.10;68.90
10986;DHT22;5546;48.714;8.738;2023-05-19T10:43:00;18.10;68.20
10986;DHT22;5546;48.714;8.738;2023-05-19T10:45:27;18.60;67.30
10986;DHT22;5546;48.714;8.738;2023-05-19T10:47:54;19.60;65.40
10986;DHT22;5546;48.714;8.738;2023-05-19T10:50:20;19.60;65.00
10986;DHT22;5546;48.714;8.738;2023-05-19T10:52:52;19.10;64.80
10986;DHT22;5546;48.714;8.738;2023-05-19T10:55:44;18.60;67.20
10986;DHT22;5546;48.714;8.738;2023-05-19T10:58:13;18.80;67.80
10986;DHT22;5546;48.714;8.738;2023-05-19T11:00:39;18.70;66.10
10986;DHT22;5546;48.714;8.738;2023-05-19T11:03:13;18.50;67.10
10986;DHT22;5546;48.714;8.738;2023-05-19T11:05:39;18.50;66.70
10986;DHT22;5546;48.714;8.738;2023-05-19T11:08:05;18.30;67.50
10986;DHT22;5546;48.714;8.738;2023-05-19T11:10:35;18.30;67.30
10986;DHT22;5546;48.714;8.738;2023-05-19T11:13:03;17.90;69.00
10986;DHT22;5546;48.714;8.738;2023-05-19T11:15:33;18.20;68.20
10986;DHT22;5546;48.714;8.738;2023-05-19T11:18:00;18.80;66.80
10986;DHT22;5546;48.714;8.738;2023-05-19T11:20:28;19.20;65.60
10986;DHT22;5546;48.714;8.738;2023-05-19T11:23:07;19.00;66.00
10986;DHT22;5546;48.714;8.738;2023-05-19T11:25:49;18.50;67.50
10986;DHT22;5546;48.714;8.738;2023-05-19T11:28:17;17.50;70.40
10986;DHT22;5546;48.714;8.738;2023-05-19T11:30:45;17.60;70.20
10986;DHT22;5546;48.714;8.738;2023-05-19T11:33:13;17.80;71.10
10986;DHT22;5546;48.714;8.738;2023-05-19T11:35:45;18.30;69.20
10986;DHT22;5546;48.714;8.738;2023-05-19T11:38:12;18.80;67.50
10986;DHT22;5546;48.714;8.738;2023-05-19T11:40:39;18.70;67.40
10986;DHT22;5546;48.714;8.738;2023-05-19T11:43:04;18.30;68.90
10986;DHT22;5546;48.714;8.738;2023-05-19T11:45:31;18.50;68.30
10986;DHT22;5546;48.714;8.738;2023-05-19T11:47:58;18.60;68.20
10986;DHT22;5546;48.714;8.738;2023-05-19T11:50:24;18.10;69.40
10986;DHT22;5546;48.714;8.738;2023-05-19T11:52:51;18.30;69.50
10986;DHT22;5546;48.714;8.738;2023-05-19T11:55:18;19.00;67.70
10986;DHT22;5546;48.714;8.738;2023-05-19T11:57:59;18.80;67.80
10986;DHT22;5546;48.714;8.738;2023-05-19T12:00:26;18.90;67.50
10986;DHT22;5546;48.714;8.738;2023-05-19T12:02:52;18.60;67.30
10986;DHT22;5546;48.714;8.738;2023-05-19T12:05:24;18.70;68.60
10986;DHT22;5546;48.714;8.738;2023-05-19T12:07:51;18.50;67.60
10986;DHT22;5546;48.714;8.738;2023-05-19T12:10:26;18.50;68.10
10986;DHT22;5546;48.714;8.738;2023-05-19T12:12:52;18.10;69.50
10986;DHT22;5546;48.714;8.738;2023-05-19T12:15:22;17.70;69.80
10986;DHT22;5546;48.714;8.738;2023-05-19T12:17:55;18.30;69.60
10986;DHT22;5546;48.714;8.738;2023-05-19T12:20:22;18.40;68.20
10986;DHT22;5546;48.714;8.738;2023-05-19T12:22:48;18.90;68.50
10986;DHT22;5546;48.714;8.738;2023-05-19T12:25:15;19.30;66.80
10986;DHT22;5546;48.714;8.738;2023-05-19T12:27:42;19.20;66.20
10986;DHT22;5546;48.714;8.738;2023-05-19T12:30:08;18.70;67.60
10986;DHT22;5546;48.714;8.738;2023-05-19T12:32:34;18.70;68.30
10986;DHT22;5546;48.714;8.738;2023-05-19T12:35:02;18.80;68.00
10986;DHT22;5546;48.714;8.738;2023-05-19T12:37:32;18.20;69.60
10986;DHT22;5546;48.714;8.738;2023-05-19T12:39:59;18.20;69.80
10986;DHT22;5546;48.714;8.738;2023-05-19T12:42:29;18.00;70.00
10986;DHT22;5546;48.714;8.738;2023-05-19T12:45:00;17.90;70.40
10986;DHT22;5546;48.714;8.738;2023-05-19T12:47:34;17.60;70.60
10986;DHT22;5546;48.714;8.738;2023-05-19T12:50:07;17.90;70.40
10986;DHT22;5546;48.714;8.738;2023-05-19T12:52:40;17.90;69.80
10986;DHT22;5546;48.714;8.738;2023-05-19T12:55:07;18.00;69.70
10986;DHT22;5546;48.714;8.738;2023-05-19T12:57:34;18.50;68.90
10986;DHT22;5546;48.714;8.738;2023-05-19T13:00:05;18.60;69.00
10986;DHT22;5546;48.714;8.738;2023-05-19T13:02:57;19.10;68.00
10986;DHT22;5546;48.714;8.738;2023-05-19T13:05:23;19.20;68.00
10986;DHT22;5546;48.714;8.738;2023-05-19T13:07:56;19.30;67.50
10986;DHT22;5546;48.714;8.738;2023-05-19T13:10:23;19.90;66.50
10986;DHT22;5546;48.714;8.738;2023-05-19T13:12:50;19.00;67.40
10986;DHT22;5546;48.714;8.738;2023-05-19T13:15:16;18.80;68.50
10986;DHT22;5546;48.714;8.738;2023-05-19T13:17:41;18.60;69.20
10986;DHT22;5546;48.714;8.738;2023-05-19T13:20:07;18.60;69.10
10986;DHT22;5546;48.714;8.738;2023-05-19T13:22:33;18.10;69.60
10986;DHT22;5546;48.714;8.738;2023-05-19T13:24:58;17.30;71.40
10986;DHT22;5546;48.714;8.738;2023-05-19T13:27:26;17.70;70.00
10986;DHT22;5546;48.714;8.738;2023-05-19T13:29:52;17.90;69.40
10986;DHT22;5546;48.714;8.738;2023-05-19T13:32:17;18.50;70.50
10986;DHT22;5546;48.714;8.738;2023-05-19T13:34:42;18.30;68.90
10986;DHT22;5546;48.714;8.738;2023-05-19T13:37:08;18.30;69.50
10986;DHT22;5546;48.714;8.738;2023-05-19T13:39:34;18.70;68.90
10986;DHT22;5546;48.714;8.738;2023-05-19T13:42:00;18.60;68.00
10986;DHT22;5546;48.714;8.738;2023-05-19T13:44:25;18.70;68.60
10986;DHT22;5546;48.714;8.738;2023-05-19T13:49:17;18.70;67.50
10986;DHT22;5546;48.714;8.738;2023-05-19T13:51:43;18.00;69.70
10986;DHT22;5546;48.714;8.738;2023-05-19T13:59:02;18.10;72.10
10986;DHT22;5546;48.714;8.738;2023-05-19T14:01:28;18.30;71.60
10986;DHT22;5546;48.714;8.738;2023-05-19T14:03:53;18.50;70.90
10986;DHT22;5546;48.714;8.738;2023-05-19T14:06:19;18.50;70.50
10986;DHT22;5546;48.714;8.738;2023-05-19T14:11:20;18.50;71.00
10986;DHT22;5546;48.714;8.738;2023-05-19T14:13:49;18.70;71.70
10986;DHT22;5546;48.714;8.738;2023-05-19T14:16:18;19.10;69.40
10986;DHT22;5546;48.714;8.738;2023-05-19T14:18:44;19.00;70.30
10986;DHT22;5546;48.714;8.738;2023-05-19T14:21:10;19.10;69.30
10986;DHT22;5546;48.714;8.738;2023-05-19T14:26:01;18.70;70.40
10986;DHT22;5546;48.714;8.738;2023-05-19T14:28:27;18.60;71.20
10986;DHT22;5546;48.714;8.738;2023-05-19T14:33:20;17.90;72.50
10986;DHT22;5546;48.714;8.738;2023-05-19T14:35:45;18.30;72.10
10986;DHT22;5546;48.714;8.738;2023-05-19T14:38:11;18.30;71.60
10986;DHT22;5546;48.714;8.738;2023-05-19T14:40:37;18.20;72.40
10986;DHT22;5546;48.714;8.738;2023-05-19T14:43:08;18.70;71.40
10986;DHT22;5546;48.714;8.738;2023-05-19T14:45:34;19.10;70.30
10986;DHT22;5546;48.714;8.738;2023-05-19T14:48:00;19.30;69.70
10986;DHT22;5546;48.714;8.738;2023-05-19T14:50:27;18.80;69.80
10986;DHT22;5546;48.714;8.738;2023-05-19T14:55:18;19.10;70.20
10986;DHT22;5546;48.714;8.738;2023-05-19T14:57:44;19.20;70.00
10986;DHT22;5546;48.714;8.738;2023-05-19T15:00:10;19.30;69.50
10986;DHT22;5546;48.714;8.738;2023-05-19T15:02:36;19.00;69.20
10986;DHT22;5546;48.714;8.738;2023-05-19T15:05:02;19.10;70.80
10986;DHT22;5546;48.714;8.738;2023-05-19T15:09:53;19.50;69.10
10986;DHT22;5546;48.714;8.738;2023-05-19T15:12:19;19.30;68.10
10986;DHT22;5546;48.714;8.738;2023-05-19T15:14:44;19.10;69.10
10986;DHT22;5546;48.714;8.738;2023-05-19T15:31:50;19.10;71.20
10986;DHT22;5546;48.714;8.738;2023-05-19T15:34:19;19.10;70.40
10986;DHT22;5546;48.714;8.738;2023-05-19T15:51:21;18.40;71.80
10986;DHT22;5546;48.714;8.738;2023-05-19T15:53:50;18.40;71.40
10986;DHT22;5546;48.714;8.738;2023-05-19T15:56:16;18.20;72.40
10986;DHT22;5546;48.714;8.738;2023-05-19T15:58:41;18.60;72.40
10986;DHT22;5546;48.714;8.738;2023-05-19T16:03:33;18.50;72.90
10986;DHT22;5546;48.714;8.738;2023-05-19T16:05:59;18.80;71.20
10986;DHT22;5546;48.714;8.738;2023-05-19T16:08:25;19.00;71.30
10986;DHT22;5546;48.714;8.738;2023-05-19T16:13:18;19.30;70.90
10986;DHT22;5546;48.714;8.738;2023-05-19T16:15:43;19.60;69.70
10986;DHT22;5546;48.714;8.738;2023-05-19T16:23:01;19.10;70.40
10986;DHT22;5546;48.714;8.738;2023-05-19T16:25:27;19.00;70.40
10986;DHT22;5546;48.714;8.738;2023-05-19T16:27:53;19.20;71.00
10986;DHT22;5546;48.714;8.738;2023-05-19T16:42:29;19.80;69.00
10986;DHT22;5546;48.714;8.738;2023-05-19T16:47:22;19.60;70.70
10986;DHT22;5546;48.714;8.738;2023-05-19T16:49:47;19.70;70.20
10986;DHT22;5546;48.714;8.738;2023-05-19T16:52:13;19.60;70.70
10986;DHT22;5546;48.714;8.738;2023-05-19T16:57:05;19.60;69.90
10986;DHT22;5546;48.714;8.738;2023-05-19T17:04:22;19.40;71.00
10986;DHT22;5546;48.714;8.738;2023-05-19T17:06:48;19.30;70.60
10986;DHT22;5546;48.714;8.738;2023-05-19T17:09:14;19.30;71.50
10986;DHT22;5546;48.714;8.738;2023-05-19T17:14:05;19.50;72.40
10986;DHT22;5546;48.714;8.738;2023-05-19T17:16:35;19.60;72.00
10986;DHT22;5546;48.714;8.738;2023-05-19T17:19:02;19.50;70.50
10986;DHT22;5546;48.714;8.738;2023-05-19T17:26:20;19.10;72.90
10986;DHT22;5546;48.714;8.738;2023-05-19T17:28:46;19.20;72.30
10986;DHT22;5546;48.714;8.738;2023-05-19T17:31:12;19.00;72.30
10986;DHT22;5546;48.714;8.738;2023-05-19T17:36:05;19.10;72.50
10986;DHT22;5546;48.714;8.738;2023-05-19T17:38:31;19.00;73.00
10986;DHT22;5546;48.714;8.738;2023-05-19T17:41:00;18.90;73.40
10986;DHT22;5546;48.714;8.738;2023-05-19T17:50:48;18.40;76.70
10986;DHT22;5546;48.714;8.738;2023-05-19T17:53:14;18.60;76.00
10986;DHT22;5546;48.714;8.738;2023-05-19T17:55:40;18.60;75.70
10986;DHT22;5546;48.714;8.738;2023-05-19T17:58:06;18.30;75.40